createdAt,value
2024-05-09T00:00:44.077Z,7.03
2024-05-09T00:03:12.352Z,7.28
2024-05-09T00:05:44.251Z,6.53
2024-05-09T00:08:12.643Z,6.15
2024-05-09T00:10:41.238Z,6.78
2024-05-09T00:13:10.864Z,8.63
2024-05-09T00:15:38.949Z,6.40
2024-05-09T00:18:07.600Z,6.80
2024-05-09T00:20:39.342Z,6.72
2024-05-09T00:23:12.103Z,6.47
2024-05-09T00:25:40.443Z,6.50
2024-05-09T00:28:07.838Z,6.55
2024-05-09T00:30:36.943Z,6.60
2024-05-09T00:33:08.542Z,6.80
2024-05-09T00:35:37.554Z,5.75
2024-05-09T00:38:05.500Z,6.47
2024-05-09T00:40:41.008Z,6.18
2024-05-09T00:43:14.612Z,6.93
2024-05-09T00:45:43.661Z,6.10
2024-05-09T00:48:17.578Z,6.45
2024-05-09T00:50:47.439Z,5.70
2024-05-09T00:53:17.633Z,6.10
2024-05-09T00:55:45.375Z,6.28
2024-05-09T00:58:16.775Z,7.70
2024-05-09T01:00:45.202Z,5.75
2024-05-09T01:03:14.178Z,5.80
2024-05-09T01:05:43.439Z,6.10
2024-05-09T01:08:11.950Z,6.28
2024-05-09T01:10:42.550Z,8.13
2024-05-09T01:13:12.222Z,5.60
2024-05-09T01:15:39.595Z,6.47
2024-05-09T01:18:13.166Z,5.70
2024-05-09T01:20:43.965Z,6.68
2024-05-09T01:23:15.604Z,5.80
2024-05-09T01:25:45.625Z,5.80
2024-05-09T01:28:14.187Z,5.75
2024-05-09T01:30:41.626Z,5.60
2024-05-09T01:33:11.328Z,5.30
2024-05-09T01:35:42.208Z,5.85
2024-05-09T01:38:17.081Z,5.88
2024-05-09T01:40:45.349Z,5.65
2024-05-09T01:43:12.824Z,4.85
2024-05-09T01:45:41.187Z,6.38
2024-05-09T01:48:10.741Z,5.10
2024-05-09T01:50:43.196Z,6.15
2024-05-09T01:53:13.185Z,5.70
2024-05-09T01:55:41.136Z,5.82
2024-05-09T01:58:09.666Z,5.55
2024-05-09T02:00:41.050Z,6.47
2024-05-09T02:03:16.424Z,4.32
2024-05-09T02:05:47.730Z,5.43
2024-05-09T02:08:18.531Z,5.78
2024-05-09T02:10:47.812Z,5.43
2024-05-09T02:13:16.428Z,5.95
2024-05-09T02:15:44.406Z,6.47
2024-05-09T02:18:12.414Z,6.03
2024-05-09T02:20:44.078Z,5.43
2024-05-09T02:23:12.284Z,5.07
2024-05-09T02:25:40.692Z,6.03
2024-05-09T02:28:08.078Z,5.57
2024-05-09T02:30:39.911Z,5.60
2024-05-09T02:33:12.295Z,5.25
2024-05-09T02:35:41.860Z,4.90
2024-05-09T02:38:10.463Z,5.50
2024-05-09T02:40:39.587Z,5.80
2024-05-09T02:43:10.942Z,5.43
2024-05-09T02:45:40.221Z,6.13
2024-05-09T02:48:11.553Z,5.80
2024-05-09T02:50:44.413Z,5.53
2024-05-09T02:53:13.000Z,6.38
2024-05-09T02:55:41.645Z,5.53
2024-05-09T02:58:09.634Z,6.10
2024-05-09T03:00:42.473Z,5.20
2024-05-09T03:03:13.756Z,5.43
2024-05-09T03:05:44.245Z,5.50
2024-05-09T03:08:12.420Z,6.63
2024-05-09T03:10:40.113Z,5.57
2024-05-09T03:13:13.262Z,5.72
2024-05-09T03:15:42.760Z,6.07
2024-05-09T03:18:10.990Z,6.03
2024-05-09T03:20:39.381Z,6.38
2024-05-09T03:23:09.568Z,6.68
2024-05-09T03:25:38.192Z,6.35
2024-05-09T03:28:06.091Z,6.78
2024-05-09T03:30:40.833Z,6.05
2024-05-09T03:33:13.498Z,7.13
2024-05-09T03:35:42.309Z,6.25
2024-05-09T03:38:10.020Z,5.95
2024-05-09T03:40:44.504Z,6.30
2024-05-09T03:43:11.959Z,6.18
2024-05-09T03:45:39.368Z,8.15
2024-05-09T03:48:07.275Z,6.78
2024-05-09T03:50:36.252Z,6.30
2024-05-09T03:53:04.762Z,5.72
2024-05-09T03:55:32.327Z,6.63
2024-05-09T03:57:59.917Z,7.05
2024-05-09T04:00:35.474Z,6.60
2024-05-09T04:03:09.046Z,6.22
2024-05-09T04:05:43.907Z,6.95
2024-05-09T04:08:12.123Z,6.50
2024-05-09T04:10:39.562Z,6.63
2024-05-09T04:13:06.952Z,7.07
2024-05-09T04:15:34.345Z,7.15
2024-05-09T04:18:02.653Z,6.72
2024-05-09T04:20:37.681Z,7.55
2024-05-09T04:23:11.376Z,6.25
2024-05-09T04:25:38.978Z,7.38
2024-05-09T04:28:06.427Z,11.93
2024-05-09T04:30:38.756Z,6.30
2024-05-09T04:33:11.956Z,7.25
2024-05-09T04:35:45.451Z,6.70
2024-05-09T04:38:14.995Z,6.35
2024-05-09T04:40:42.900Z,7.43
2024-05-09T04:43:19.146Z,6.45
2024-05-09T04:45:46.638Z,7.00
2024-05-09T04:48:14.358Z,7.22
2024-05-09T04:50:42.152Z,7.15
2024-05-09T04:53:11.358Z,6.75
2024-05-09T04:55:40.063Z,7.15
2024-05-09T04:58:09.656Z,7.05
2024-05-09T05:00:39.069Z,7.82
2024-05-09T05:03:14.094Z,7.60
2024-05-09T05:05:45.157Z,7.60
2024-05-09T05:08:15.145Z,6.90
2024-05-09T05:10:44.092Z,9.00
2024-05-09T05:13:24.984Z,6.95
2024-05-09T05:18:28.881Z,6.72
2024-05-09T05:20:57.041Z,7.47
2024-05-09T05:23:25.247Z,8.68
2024-05-09T05:25:54.408Z,7.07
2024-05-09T05:28:22.521Z,8.20
2024-05-09T05:30:50.199Z,7.68
2024-05-09T05:33:23.044Z,7.65
2024-05-09T05:35:51.549Z,7.43
2024-05-09T05:38:20.033Z,7.15
2024-05-09T05:40:49.251Z,6.93
2024-05-09T05:43:18.320Z,6.72
2024-05-09T05:45:46.281Z,7.72
2024-05-09T05:48:18.018Z,6.65
2024-05-09T05:53:13.296Z,6.68
2024-05-09T05:55:41.797Z,7.95
2024-05-09T05:58:10.776Z,6.80
2024-05-09T06:00:40.271Z,7.25
2024-05-09T06:03:10.046Z,7.97
2024-05-09T06:05:44.075Z,6.32
2024-05-09T06:08:12.240Z,7.50
2024-05-09T06:10:41.164Z,7.10
2024-05-09T06:13:13.724Z,7.65
2024-05-09T06:15:42.565Z,7.03
2024-05-09T06:18:11.979Z,6.45
2024-05-09T06:20:42.342Z,6.55
2024-05-09T06:23:11.008Z,6.60
2024-05-09T06:25:38.969Z,6.70
2024-05-09T06:28:06.776Z,6.75
2024-05-09T06:30:40.202Z,6.30
2024-05-09T06:33:12.793Z,6.68
2024-05-09T06:35:42.486Z,6.95
2024-05-09T06:38:11.593Z,5.97
2024-05-09T06:40:42.781Z,6.50
2024-05-09T06:45:40.154Z,5.93
2024-05-09T06:48:09.284Z,6.13
2024-05-09T06:50:38.619Z,6.00
2024-05-09T06:53:07.899Z,6.03
2024-05-09T06:55:35.483Z,6.22
2024-05-09T06:58:05.979Z,6.03
2024-05-09T07:00:39.113Z,5.32
2024-05-09T07:03:14.746Z,6.03
2024-05-09T07:05:44.687Z,4.78
2024-05-09T07:08:12.456Z,4.93
2024-05-09T07:10:40.002Z,5.03
2024-05-09T07:13:11.077Z,6.90
2024-05-09T07:15:38.761Z,6.13
2024-05-09T07:18:11.589Z,6.05
2024-05-09T07:20:41.062Z,5.25
2024-05-09T07:23:13.135Z,4.38
2024-05-09T07:25:41.819Z,5.03
2024-05-09T07:28:18.119Z,4.95
2024-05-09T07:30:46.244Z,4.80
2024-05-09T07:33:22.758Z,5.50
2024-05-09T07:35:53.329Z,4.80
2024-05-09T07:38:21.514Z,4.72
2024-05-09T07:40:51.607Z,5.03
2024-05-09T07:43:18.998Z,4.53
2024-05-09T07:45:52.547Z,4.28
2024-05-09T07:52:39.307Z,4.13
2024-05-09T07:53:48.839Z,4.35
2024-05-09T07:56:21.808Z,5.32
2024-05-09T07:58:51.759Z,7.15
2024-05-09T08:01:20.744Z,6.75
2024-05-09T08:03:48.669Z,5.43
2024-05-09T08:06:16.155Z,6.22
2024-05-09T08:08:43.531Z,5.15
2024-05-09T08:11:10.919Z,5.90
2024-05-09T08:13:38.420Z,6.13
2024-05-09T08:16:07.823Z,6.53
2024-05-09T08:18:35.598Z,6.95
2024-05-09T08:21:03.293Z,5.63
2024-05-09T08:23:30.701Z,6.10
2024-05-09T08:25:58.070Z,6.95
2024-05-09T08:28:25.525Z,7.03
2024-05-09T08:30:53.055Z,7.55
2024-05-09T08:33:20.632Z,6.90
2024-05-09T08:35:48.047Z,5.68
2024-05-09T08:38:15.496Z,5.60
2024-05-09T08:40:43.876Z,6.15
2024-05-09T08:43:12.921Z,6.32
2024-05-09T08:45:45.424Z,6.68
2024-05-09T08:48:15.815Z,5.80
2024-05-09T08:50:45.381Z,6.13
2024-05-09T08:53:15.449Z,6.97
2024-05-09T08:55:44.366Z,6.03
2024-05-09T08:58:21.951Z,6.53
2024-05-09T09:00:49.836Z,5.72
2024-05-09T09:03:25.435Z,6.20
2024-05-09T09:06:12.515Z,5.88
2024-05-09T09:08:40.421Z,7.03
2024-05-09T09:11:07.899Z,6.75
2024-05-09T09:13:35.229Z,5.88
2024-05-09T09:16:03.755Z,7.60
2024-05-09T09:18:32.820Z,6.22
2024-05-09T09:21:00.427Z,6.53
2024-05-09T09:23:30.230Z,7.35
2024-05-09T09:26:01.388Z,6.47
2024-05-09T09:28:29.966Z,5.88
2024-05-09T09:31:04.798Z,5.93
2024-05-09T09:33:33.130Z,5.78
2024-05-09T09:36:03.017Z,6.80
2024-05-09T09:38:32.520Z,6.50
2024-05-09T09:41:05.876Z,6.88
2024-05-09T09:43:34.118Z,7.03
2024-05-09T09:46:02.423Z,6.53
2024-05-09T09:48:32.382Z,6.85
2024-05-09T09:51:00.869Z,6.15
2024-05-09T09:53:32.443Z,6.45
2024-05-09T09:56:01.162Z,5.75
2024-05-09T09:58:30.540Z,6.25
2024-05-09T10:00:58.010Z,6.93
2024-05-09T10:03:25.852Z,7.00
2024-05-09T10:05:54.750Z,7.00
2024-05-09T10:08:24.645Z,6.22
2024-05-09T10:10:52.463Z,7.05
2024-05-09T10:13:20.279Z,6.80
2024-05-09T10:15:52.546Z,5.80
2024-05-09T10:18:27.247Z,6.82
2024-05-09T10:20:56.842Z,6.47
2024-05-09T10:23:26.461Z,6.70
2024-05-09T10:26:05.309Z,6.45
2024-05-09T10:28:37.114Z,5.93
2024-05-09T10:31:08.964Z,6.93
2024-05-09T10:33:48.700Z,7.63
2024-05-09T10:36:23.334Z,7.28
2024-05-09T10:38:52.948Z,7.75
2024-05-09T10:41:23.238Z,6.95
2024-05-09T10:43:51.557Z,6.75
2024-05-09T10:46:20.044Z,6.43
2024-05-09T10:48:48.844Z,6.97
2024-05-09T10:51:19.871Z,6.25
2024-05-09T10:53:48.743Z,5.97
2024-05-09T10:56:17.246Z,6.07
2024-05-09T10:58:45.049Z,6.53
2024-05-09T11:01:14.089Z,5.88
2024-05-09T11:03:42.210Z,5.70
2024-05-09T11:06:11.718Z,4.57
2024-05-09T11:08:39.912Z,4.43
2024-05-09T11:11:08.928Z,4.57
2024-05-09T11:13:40.976Z,4.07
2024-05-09T11:16:20.160Z,4.78
2024-05-09T11:18:58.962Z,4.38
2024-05-09T11:21:27.099Z,4.53
2024-05-09T11:23:55.075Z,4.40
2024-05-09T11:26:22.817Z,4.43
2024-05-09T11:28:51.023Z,4.63
2024-05-09T11:31:18.945Z,4.30
2024-05-09T11:33:46.894Z,4.57
2024-05-09T11:36:15.520Z,4.82
2024-05-09T11:38:43.276Z,4.25
2024-05-09T11:41:18.709Z,4.47
2024-05-09T11:43:47.208Z,4.78
2024-05-09T11:46:14.998Z,4.93
2024-05-09T11:48:42.852Z,5.00
2024-05-09T11:51:10.387Z,4.53
2024-05-09T11:53:37.799Z,4.35
2024-05-09T11:56:05.632Z,4.65
2024-05-09T11:58:34.852Z,4.47
2024-05-09T12:01:02.656Z,7.72
2024-05-09T12:03:30.520Z,4.65
2024-05-09T12:05:58.220Z,4.70
2024-05-09T12:08:25.750Z,5.90
2024-05-09T12:10:53.865Z,5.47
2024-05-09T12:13:21.602Z,4.90
2024-05-09T12:15:49.156Z,5.20
2024-05-09T12:18:16.667Z,5.85
2024-05-09T12:20:44.098Z,6.10
2024-05-09T12:23:11.555Z,6.82
2024-05-09T12:25:40.307Z,7.97
2024-05-09T12:28:09.067Z,7.07
2024-05-09T12:30:40.136Z,7.85
2024-05-09T12:33:11.589Z,7.50
2024-05-09T12:35:40.114Z,7.80
2024-05-09T12:38:07.768Z,7.70
2024-05-09T12:40:38.053Z,6.75
2024-05-09T12:43:10.660Z,7.78
2024-05-09T12:45:40.773Z,7.47
2024-05-09T12:48:12.284Z,7.95
2024-05-09T12:50:41.422Z,6.78
2024-05-09T12:53:09.225Z,6.95
2024-05-09T12:55:44.292Z,6.40
2024-05-09T12:58:22.334Z,6.85
2024-05-09T13:00:51.535Z,6.40
2024-05-09T13:03:19.396Z,5.93
2024-05-09T13:05:47.165Z,6.53
2024-05-09T13:08:14.557Z,5.72
2024-05-09T13:10:42.522Z,5.40
2024-05-09T13:13:11.285Z,6.05
2024-05-09T13:15:39.303Z,6.60
2024-05-09T13:18:07.352Z,5.95
2024-05-09T13:20:37.087Z,6.38
2024-05-09T13:23:07.215Z,7.75
2024-05-09T13:25:35.700Z,6.25
2024-05-09T13:28:04.867Z,6.57
2024-05-09T13:30:39.478Z,7.35
2024-05-09T13:33:14.095Z,6.57
2024-05-09T13:35:47.242Z,5.88
2024-05-09T13:38:19.337Z,6.45
2024-05-09T13:40:47.816Z,6.15
2024-05-09T13:43:15.884Z,6.30
2024-05-09T13:45:44.117Z,8.07
2024-05-09T13:48:11.655Z,6.28
2024-05-09T13:50:39.531Z,6.82
2024-05-09T13:53:08.188Z,6.93
2024-05-09T13:55:39.730Z,6.20
2024-05-09T13:58:08.780Z,6.50
2024-05-09T14:00:45.036Z,6.82
2024-05-09T14:03:18.427Z,6.25
2024-05-09T14:08:15.888Z,6.07
2024-05-09T14:10:46.722Z,6.53
2024-05-09T14:13:14.889Z,6.40
2024-05-09T14:15:42.536Z,4.78
2024-05-09T14:18:13.236Z,6.05
2024-05-09T14:20:42.170Z,5.68
2024-05-09T14:23:09.957Z,6.65
2024-05-09T14:25:42.037Z,5.88
2024-05-09T14:28:11.912Z,5.57
2024-05-09T14:30:40.100Z,5.72
2024-05-09T14:33:09.001Z,5.38
2024-05-09T14:35:38.823Z,5.85
2024-05-09T14:38:07.919Z,5.85
2024-05-09T14:40:42.241Z,5.25
2024-05-09T14:43:15.922Z,4.72
2024-05-09T14:45:47.337Z,4.47
2024-05-09T14:48:15.991Z,4.90
2024-05-09T14:50:43.867Z,5.00
2024-05-09T14:53:12.781Z,4.32
2024-05-09T14:55:42.574Z,5.50
2024-05-09T14:58:11.757Z,5.97
2024-05-09T15:00:46.121Z,5.50
2024-05-09T15:03:21.145Z,4.95
2024-05-09T15:05:49.842Z,4.70
2024-05-09T15:08:18.653Z,3.90
2024-05-09T15:10:47.307Z,5.18
2024-05-09T15:13:16.766Z,5.55
2024-05-09T15:15:44.931Z,5.00
2024-05-09T15:18:13.264Z,5.43
2024-05-09T15:20:41.439Z,5.38
2024-05-09T15:23:08.898Z,6.65
2024-05-09T15:25:37.007Z,4.35
2024-05-09T15:28:08.221Z,5.35
2024-05-09T15:30:36.598Z,4.60
2024-05-09T15:33:05.025Z,4.25
2024-05-09T15:35:33.951Z,4.05
2024-05-09T15:38:03.330Z,4.60
2024-05-09T15:40:38.031Z,3.83
2024-05-09T15:43:10.586Z,3.58
2024-05-09T15:45:39.859Z,3.45
2024-05-09T15:48:10.234Z,5.13
2024-05-09T15:50:41.018Z,4.03
2024-05-09T15:53:11.974Z,3.90
2024-05-09T15:55:40.563Z,4.07
2024-05-09T15:58:08.355Z,4.05
2024-05-09T16:00:39.829Z,3.83
2024-05-09T16:03:14.542Z,3.25
2024-05-09T16:05:46.773Z,4.07
2024-05-09T16:08:15.612Z,4.43
2024-05-09T16:10:46.112Z,4.45
2024-05-09T16:13:15.240Z,3.50
2024-05-09T16:15:44.470Z,3.78
2024-05-09T16:18:12.485Z,3.85
2024-05-09T16:20:42.559Z,3.58
2024-05-09T16:23:11.757Z,3.40
2024-05-09T16:25:40.135Z,3.50
2024-05-09T16:28:10.419Z,3.80
2024-05-09T16:30:41.815Z,3.50
2024-05-09T16:33:11.078Z,3.70
2024-05-09T16:35:39.733Z,3.85
2024-05-09T16:38:07.461Z,4.47
2024-05-09T16:40:39.105Z,5.50
2024-05-09T16:43:13.367Z,4.75
2024-05-09T16:45:45.423Z,4.55
2024-05-09T16:48:14.542Z,4.50
2024-05-09T16:50:42.283Z,5.07
2024-05-09T16:53:09.721Z,3.88
2024-05-09T16:55:37.303Z,4.57
2024-05-09T16:58:06.763Z,3.78
2024-05-09T17:00:40.861Z,3.80
2024-05-09T17:03:13.873Z,6.47
2024-05-09T17:05:42.966Z,4.88
2024-05-09T17:08:10.618Z,4.15
2024-05-09T17:10:38.252Z,4.50
2024-05-09T17:13:07.728Z,4.55
2024-05-09T17:15:37.314Z,5.00
2024-05-09T17:18:06.088Z,4.00
2024-05-09T17:20:36.315Z,4.22
2024-05-09T17:23:12.811Z,4.25
2024-05-09T17:25:41.468Z,4.57
2024-05-09T17:28:09.599Z,3.83
2024-05-09T17:30:39.418Z,3.42
2024-05-09T17:33:10.217Z,4.18
2024-05-09T17:35:38.874Z,5.25
2024-05-09T17:38:07.107Z,4.70
2024-05-09T17:40:37.252Z,4.07
2024-05-09T17:43:08.469Z,3.78
2024-05-09T17:45:39.069Z,4.15
2024-05-09T17:48:07.843Z,5.72
2024-05-09T17:50:38.083Z,4.00
2024-05-09T17:53:07.156Z,5.07
2024-05-09T17:55:35.557Z,3.67
2024-05-09T17:58:04.894Z,6.18
2024-05-09T18:00:39.052Z,4.05
2024-05-09T18:03:11.934Z,5.93
2024-05-09T18:05:41.110Z,8.27
2024-05-09T18:08:09.219Z,9.57
2024-05-09T18:10:39.337Z,4.32
2024-05-09T18:13:12.233Z,4.85
2024-05-09T18:15:40.539Z,4.05
2024-05-09T18:18:09.311Z,5.20
2024-05-09T18:20:43.003Z,3.85
2024-05-09T18:23:15.773Z,3.80
2024-05-09T18:25:44.612Z,3.88
2024-05-09T18:28:12.055Z,3.67
2024-05-09T18:30:40.387Z,3.70
2024-05-09T18:33:10.900Z,4.10
2024-05-09T18:35:38.857Z,4.30
2024-05-09T18:38:06.326Z,4.60
2024-05-09T18:40:36.706Z,4.40
2024-05-09T18:43:08.126Z,4.35
2024-05-09T18:45:38.395Z,4.37
2024-05-09T18:48:07.823Z,4.15
2024-05-09T18:50:39.686Z,5.07
2024-05-09T18:53:13.210Z,4.18
2024-05-09T18:55:44.666Z,4.72
2024-05-09T18:58:12.253Z,5.10
2024-05-09T19:00:42.609Z,4.72
2024-05-09T19:03:14.123Z,4.97
2024-05-09T19:05:45.237Z,4.43
2024-05-09T19:08:14.674Z,4.53
2024-05-09T19:10:42.386Z,4.28
2024-05-09T19:13:12.730Z,4.28
2024-05-09T19:15:42.539Z,5.10
2024-05-09T19:18:12.460Z,5.38
2024-05-09T19:20:40.415Z,4.60
2024-05-09T19:23:08.016Z,5.30
2024-05-09T19:25:36.927Z,6.35
2024-05-09T19:28:05.655Z,5.32
2024-05-09T19:30:39.128Z,5.35
2024-05-09T19:33:10.454Z,5.32
2024-05-09T19:35:39.134Z,5.82
2024-05-09T19:38:06.818Z,5.30
2024-05-09T19:40:35.329Z,5.43
2024-05-09T19:43:05.011Z,5.78
2024-05-09T19:45:34.942Z,5.55
2024-05-09T19:48:03.759Z,6.05
2024-05-09T19:50:39.705Z,5.13
2024-05-09T19:53:13.245Z,4.78
2024-05-09T19:55:41.414Z,4.82
2024-05-09T19:58:10.709Z,4.65
2024-05-09T20:00:41.662Z,5.25
2024-05-09T20:03:12.309Z,5.28
2024-05-09T20:05:40.254Z,4.88
2024-05-09T20:08:08.096Z,5.43
2024-05-09T20:10:36.580Z,5.18
2024-05-09T20:13:06.770Z,5.15
2024-05-09T20:15:36.878Z,6.30
2024-05-09T20:18:05.536Z,5.50
2024-05-09T20:20:39.359Z,8.90
2024-05-09T20:23:11.037Z,9.18
2024-05-09T20:25:41.930Z,9.88
2024-05-09T20:28:10.016Z,9.65
2024-05-09T20:30:37.944Z,8.80
2024-05-09T20:33:07.824Z,7.07
2024-05-09T20:35:36.561Z,7.03
2024-05-09T20:38:04.552Z,7.15
2024-05-09T20:40:36.487Z,6.85
2024-05-09T20:43:07.505Z,6.40
2024-05-09T20:45:36.860Z,7.45
2024-05-09T20:48:04.959Z,6.80
2024-05-09T20:50:38.809Z,7.20
2024-05-09T20:53:10.024Z,7.55
2024-05-09T20:55:37.766Z,7.50
2024-05-09T20:58:05.452Z,7.53
2024-05-09T21:00:40.339Z,7.38
2024-05-09T21:03:12.214Z,6.05
2024-05-09T21:05:40.684Z,7.07
2024-05-09T21:08:09.046Z,7.38
2024-05-09T21:10:37.436Z,7.50
2024-05-09T21:13:06.430Z,7.07
2024-05-09T21:15:35.121Z,8.27
2024-05-09T21:18:03.114Z,8.40
2024-05-09T21:20:33.313Z,7.53
2024-05-09T21:23:02.383Z,7.75
2024-05-09T21:25:30.152Z,7.85
2024-05-09T21:27:57.904Z,7.03
2024-05-09T21:30:38.186Z,8.07
2024-05-09T21:33:11.079Z,6.95
2024-05-09T21:35:40.419Z,7.25
2024-05-09T21:38:08.249Z,7.45
2024-05-09T21:40:36.980Z,7.68
2024-05-09T21:43:06.083Z,7.88
2024-05-09T21:45:34.508Z,8.18
2024-05-09T21:48:04.732Z,8.85
2024-05-09T21:50:39.249Z,7.30
2024-05-09T21:53:09.048Z,8.23
2024-05-09T21:55:36.384Z,7.18
2024-05-09T21:58:05.111Z,7.32
2024-05-09T22:00:37.642Z,7.93
2024-05-09T22:03:11.318Z,7.82
2024-05-09T22:05:42.242Z,7.68
2024-05-09T22:08:10.931Z,10.50
2024-05-09T22:10:38.585Z,8.07
2024-05-09T22:13:06.928Z,8.20
2024-05-09T22:15:40.280Z,7.57
2024-05-09T22:18:09.868Z,8.18
2024-05-09T22:20:44.820Z,9.20
2024-05-09T22:23:14.327Z,8.10
2024-05-09T22:25:42.472Z,8.82
2024-05-09T22:28:10.079Z,8.88
2024-05-09T22:30:39.813Z,8.25
2024-05-09T22:33:11.958Z,8.23
2024-05-09T22:35:41.226Z,8.43
2024-05-09T22:38:09.076Z,8.90
2024-05-09T22:40:45.976Z,9.35
2024-05-09T22:43:22.211Z,8.63
2024-05-09T22:45:52.045Z,8.20
2024-05-09T22:48:19.801Z,8.93
2024-05-09T22:50:47.467Z,8.82
2024-05-09T22:53:14.995Z,8.05
2024-05-09T22:55:42.780Z,8.10
2024-05-09T22:58:11.130Z,7.43
2024-05-09T23:00:38.869Z,8.25
2024-05-09T23:03:06.547Z,9.88
2024-05-09T23:05:34.175Z,8.95
2024-05-09T23:08:02.836Z,9.80
2024-05-09T23:10:35.956Z,10.73
2024-05-09T23:13:06.996Z,9.95
2024-05-09T23:15:35.023Z,9.50
2024-05-09T23:18:02.573Z,9.43
2024-05-09T23:20:36.886Z,9.05
2024-05-09T23:23:11.450Z,8.30
2024-05-09T23:25:41.823Z,10.77
2024-05-09T23:28:10.352Z,9.07
2024-05-09T23:30:40.326Z,10.02
2024-05-09T23:33:12.198Z,10.70
2024-05-09T23:35:42.124Z,10.30
2024-05-09T23:38:09.538Z,9.80
2024-05-09T23:40:39.982Z,9.88
2024-05-09T23:45:38.742Z,9.38
2024-05-09T23:48:06.894Z,10.45
2024-05-09T23:50:37.630Z,10.30
2024-05-09T23:53:08.589Z,10.15
2024-05-09T23:55:37.411Z,9.20
2024-05-09T23:58:05.278Z,10.15
